createdAt,value
2019-05-09T00:00:04.150Z,0.00
2019-05-09T00:01:04.094Z,0.00
2019-05-09T00:02:04.018Z,0.00
2019-05-09T00:03:04.008Z,0.00
2019-05-09T00:04:03.999Z,0.00
2019-05-09T00:05:04.062Z,0.00
2019-05-09T00:06:04.575Z,0.00
2019-05-09T00:07:03.973Z,0.00
2019-05-09T00:08:03.951Z,0.00
2019-05-09T00:09:03.965Z,0.00
2019-05-09T00:10:04.226Z,0.00
2019-05-09T00:11:03.916Z,0.00
2019-05-09T00:12:03.955Z,0.00
2019-05-09T00:13:03.893Z,0.00
2019-05-09T00:14:04.657Z,0.00
2019-05-09T00:15:04.656Z,0.00
2019-05-09T00:16:03.877Z,0.00
2019-05-09T00:17:03.933Z,0.00
2019-05-09T00:18:04.103Z,0.00
2019-05-09T00:19:03.826Z,0.00
2019-05-09T00:20:03.840Z,0.00
2019-05-09T00:21:04.230Z,0.00
2019-05-09T00:22:03.793Z,0.00
2019-05-09T00:23:03.784Z,0.00
2019-05-09T00:24:03.773Z,0.00
2019-05-09T00:25:03.784Z,0.00
2019-05-09T00:26:04.259Z,0.00
2019-05-09T00:27:03.969Z,0.00
2019-05-09T00:28:04.206Z,0.00
2019-05-09T00:29:03.907Z,0.00
2019-05-09T00:30:03.968Z,0.00
2019-05-09T00:31:03.742Z,0.00
2019-05-09T00:32:03.685Z,0.00
2019-05-09T00:33:03.884Z,0.00
2019-05-09T00:34:04.289Z,0.00
2019-05-09T00:35:04.012Z,0.00
2019-05-09T00:36:04.330Z,0.00
2019-05-09T00:37:03.627Z,0.00
2019-05-09T00:38:04.278Z,0.00
2019-05-09T00:39:04.151Z,0.00
2019-05-09T00:40:04.099Z,0.00
2019-05-09T00:41:03.921Z,0.00
2019-05-09T00:42:04.396Z,0.00
2019-05-09T00:43:04.088Z,0.00
2019-05-09T00:44:03.546Z,0.00
2019-05-09T00:45:04.154Z,0.00
2019-05-09T00:46:04.307Z,0.00
2019-05-09T00:47:04.210Z,0.00
2019-05-09T00:48:03.612Z,0.00
2019-05-09T00:49:05.090Z,0.00
2019-05-09T00:50:05.156Z,0.00
2019-05-09T00:51:03.660Z,0.00
2019-05-09T00:52:03.722Z,0.00
2019-05-09T00:53:03.446Z,0.00
2019-05-09T00:54:04.161Z,0.00
2019-05-09T00:55:04.001Z,0.00
2019-05-09T00:56:04.276Z,0.00
2019-05-09T00:57:03.424Z,0.00
2019-05-09T00:58:04.223Z,0.00
2019-05-09T00:59:04.210Z,0.00
2019-05-09T01:00:04.046Z,0.00
2019-05-09T01:01:04.413Z,0.00
2019-05-09T01:02:04.066Z,0.00
2019-05-09T01:03:03.654Z,0.00
2019-05-09T01:04:04.305Z,0.00
2019-05-09T01:05:04.226Z,0.00
2019-05-09T01:06:04.073Z,0.00
2019-05-09T01:07:03.613Z,0.00
2019-05-09T01:08:04.183Z,0.00
2019-05-09T01:09:04.167Z,0.00
2019-05-09T01:10:04.217Z,0.00
2019-05-09T01:11:11.283Z,0.00
2019-05-09T01:12:04.138Z,0.00
2019-05-09T01:13:03.672Z,0.00
2019-05-09T01:14:03.738Z,0.00
2019-05-09T01:15:03.482Z,0.00
2019-05-09T01:16:04.419Z,0.00
2019-05-09T01:17:04.278Z,0.00
2019-05-09T01:18:04.395Z,0.00
2019-05-09T01:19:03.734Z,0.00
2019-05-09T01:20:03.575Z,0.00
2019-05-09T01:21:04.024Z,0.00
2019-05-09T01:22:03.824Z,0.00
2019-05-09T01:23:03.559Z,0.00
2019-05-09T01:24:03.474Z,0.00
2019-05-09T01:25:04.152Z,0.00
2019-05-09T01:26:03.825Z,0.00
2019-05-09T01:27:03.739Z,0.00
2019-05-09T01:28:03.436Z,0.00
2019-05-09T01:29:04.395Z,0.00
2019-05-09T01:30:04.550Z,0.00
2019-05-09T01:31:03.993Z,0.00
2019-05-09T01:32:03.579Z,0.00
2019-05-09T01:33:03.740Z,0.00
2019-05-09T01:34:04.106Z,0.00
2019-05-09T01:35:03.878Z,0.00
2019-05-09T01:36:03.787Z,0.00
2019-05-09T01:37:03.574Z,0.00
2019-05-09T01:38:03.608Z,0.00
2019-05-09T01:39:03.309Z,0.00
2019-05-09T01:40:04.304Z,0.00
2019-05-09T01:41:04.047Z,0.00
2019-05-09T01:42:03.433Z,0.00
2019-05-09T01:43:04.510Z,0.00
2019-05-09T01:44:04.077Z,0.00
2019-05-09T01:45:03.755Z,0.00
2019-05-09T01:46:03.805Z,0.00
2019-05-09T01:47:03.825Z,0.00
2019-05-09T01:48:03.367Z,0.00
2019-05-09T01:49:03.292Z,0.00
2019-05-09T01:50:03.903Z,0.00
2019-05-09T01:51:03.370Z,0.00
2019-05-09T01:52:03.437Z,0.00
2019-05-09T01:53:04.004Z,0.00
2019-05-09T01:54:03.752Z,0.00
2019-05-09T01:55:03.689Z,0.00
2019-05-09T01:56:03.619Z,0.00
2019-05-09T01:57:03.551Z,0.00
2019-05-09T01:58:03.354Z,0.00
2019-05-09T01:59:03.093Z,0.00
2019-05-09T02:00:04.153Z,0.00
2019-05-09T02:01:03.677Z,0.00
2019-05-09T02:02:08.082Z,0.00
2019-05-09T02:03:03.658Z,0.00
2019-05-09T02:04:04.106Z,0.00
2019-05-09T02:05:04.149Z,0.00
2019-05-09T02:06:03.551Z,0.00
2019-05-09T02:07:04.104Z,0.00
2019-05-09T02:08:03.365Z,0.00
2019-05-09T02:09:03.536Z,0.00
2019-05-09T02:10:03.398Z,0.00
2019-05-09T02:11:03.785Z,0.00
2019-05-09T02:12:03.862Z,0.00
2019-05-09T02:13:03.091Z,0.00
2019-05-09T02:14:04.126Z,0.00
2019-05-09T02:15:03.964Z,0.00
2019-05-09T02:16:03.401Z,0.00
2019-05-09T02:17:03.254Z,0.00
2019-05-09T02:18:05.092Z,0.00
2019-05-09T02:19:04.062Z,0.00
2019-05-09T02:20:03.969Z,0.00
2019-05-09T02:21:04.016Z,0.00
2019-05-09T02:22:03.690Z,0.00
2019-05-09T02:23:03.659Z,0.00
2019-05-09T02:24:03.230Z,0.00
2019-05-09T02:25:04.293Z,0.00
2019-05-09T02:26:03.967Z,0.00
2019-05-09T02:27:03.928Z,0.00
2019-05-09T02:28:03.506Z,0.00
2019-05-09T02:29:03.278Z,0.00
2019-05-09T02:30:05.454Z,0.00
2019-05-09T02:31:05.296Z,0.00
2019-05-09T02:32:04.703Z,0.00
2019-05-09T02:33:04.849Z,0.00
2019-05-09T02:34:04.859Z,0.00
2019-05-09T02:35:04.864Z,0.00
2019-05-09T02:36:02.448Z,0.00
2019-05-09T02:37:02.301Z,0.00
2019-05-09T02:38:02.266Z,0.00
2019-05-09T02:39:02.250Z,0.00
2019-05-09T02:40:02.239Z,0.00
2019-05-09T02:41:02.226Z,0.00
2019-05-09T02:42:09.128Z,0.00
2019-05-09T02:43:02.208Z,0.00
2019-05-09T02:44:02.196Z,0.00
2019-05-09T02:45:02.208Z,0.00
2019-05-09T02:46:02.172Z,0.00
2019-05-09T02:47:02.183Z,0.00
2019-05-09T02:48:02.149Z,0.00
2019-05-09T02:49:02.140Z,0.00
2019-05-09T02:50:02.128Z,0.00
2019-05-09T02:51:02.113Z,0.00
2019-05-09T02:52:02.146Z,0.00
2019-05-09T02:53:02.101Z,0.00
2019-05-09T02:54:02.104Z,0.00
2019-05-09T02:55:02.073Z,0.00
2019-05-09T02:56:02.059Z,0.00
2019-05-09T02:57:02.071Z,0.00
2019-05-09T02:58:02.037Z,0.00
2019-05-09T02:59:02.031Z,0.00
2019-05-09T03:00:02.021Z,0.00
2019-05-09T03:01:02.002Z,0.00
2019-05-09T03:02:02.017Z,0.00
2019-05-09T03:03:02.002Z,0.00
2019-05-09T03:04:01.970Z,0.00
2019-05-09T03:05:01.961Z,0.00
2019-05-09T03:06:01.965Z,0.00
2019-05-09T03:07:01.965Z,0.00
2019-05-09T03:08:01.922Z,0.00
2019-05-09T03:09:01.918Z,0.00
2019-05-09T03:10:01.903Z,0.00
2019-05-09T03:11:01.888Z,0.00
2019-05-09T03:12:21.091Z,0.00
2019-05-09T03:13:01.867Z,0.00
2019-05-09T03:14:01.852Z,0.00
2019-05-09T03:15:01.925Z,0.00
2019-05-09T03:16:01.836Z,0.00
2019-05-09T03:17:01.855Z,0.00
2019-05-09T03:18:01.843Z,0.00
2019-05-09T03:19:01.806Z,0.00
2019-05-09T03:20:01.789Z,0.00
2019-05-09T03:21:01.779Z,0.00
2019-05-09T03:22:01.763Z,0.00
2019-05-09T03:23:01.806Z,0.00
2019-05-09T03:24:01.741Z,0.00
2019-05-09T03:25:01.780Z,0.00
2019-05-09T03:26:01.727Z,0.00
2019-05-09T03:27:01.714Z,0.00
2019-05-09T03:28:01.722Z,0.00
2019-05-09T03:29:01.687Z,0.00
2019-05-09T03:30:01.714Z,0.00
2019-05-09T03:31:01.664Z,0.00
2019-05-09T03:32:01.654Z,0.00
2019-05-09T03:33:01.669Z,0.00
2019-05-09T03:34:01.675Z,0.00
2019-05-09T03:35:01.623Z,0.00
2019-05-09T03:36:01.608Z,0.00
2019-05-09T03:37:01.594Z,0.00
2019-05-09T03:38:01.607Z,0.00
2019-05-09T03:39:01.574Z,0.00
2019-05-09T03:40:01.559Z,0.00
2019-05-09T03:41:01.551Z,0.00
2019-05-09T03:42:01.539Z,0.00
2019-05-09T03:43:01.550Z,0.00
2019-05-09T03:44:01.515Z,0.00
2019-05-09T03:45:01.506Z,0.00
2019-05-09T03:46:01.494Z,0.00
2019-05-09T03:47:01.481Z,0.00
2019-05-09T03:48:01.493Z,0.00
2019-05-09T03:49:01.467Z,0.00
2019-05-09T03:50:01.447Z,0.00
2019-05-09T03:51:01.437Z,0.00
2019-05-09T03:52:01.427Z,0.00
2019-05-09T03:53:01.438Z,0.00
2019-05-09T03:54:01.400Z,0.00
2019-05-09T03:55:01.389Z,0.00
2019-05-09T03:56:01.380Z,0.00
2019-05-09T03:57:01.370Z,0.00
2019-05-09T03:58:01.380Z,0.00
2019-05-09T03:59:01.350Z,0.00
2019-05-09T04:00:01.336Z,0.00
2019-05-09T04:01:01.324Z,0.00
2019-05-09T04:02:01.318Z,0.00
2019-05-09T04:03:01.326Z,0.00
2019-05-09T04:04:01.289Z,0.00
2019-05-09T04:05:01.295Z,0.00
2019-05-09T04:06:03.058Z,0.00
2019-05-09T04:07:01.255Z,5.62
2019-05-09T04:08:01.269Z,5.62
2019-05-09T04:09:01.234Z,5.62
2019-05-09T04:10:01.225Z,5.62
2019-05-09T04:11:01.211Z,5.62
2019-05-09T04:12:01.198Z,5.62
2019-05-09T04:13:01.209Z,5.62
2019-05-09T04:14:01.176Z,5.62
2019-05-09T04:15:01.165Z,5.62
2019-05-09T04:16:01.151Z,5.62
2019-05-09T04:17:01.144Z,5.62
2019-05-09T04:18:01.155Z,5.62
2019-05-09T04:19:01.122Z,5.62
2019-05-09T04:20:01.106Z,5.62
2019-05-09T04:21:01.112Z,5.62
2019-05-09T04:22:02.404Z,5.62
2019-05-09T04:23:01.096Z,5.62
2019-05-09T04:24:01.062Z,5.62
2019-05-09T04:25:01.055Z,11.25
2019-05-09T04:26:01.044Z,11.25
2019-05-09T04:27:01.028Z,11.25
2019-05-09T04:28:01.194Z,11.25
2019-05-09T04:29:01.006Z,11.25
2019-05-09T04:30:01.000Z,11.25
2019-05-09T04:31:00.984Z,11.25
2019-05-09T04:32:00.980Z,11.25
2019-05-09T04:33:00.993Z,11.25
2019-05-09T04:34:00.952Z,11.25
2019-05-09T04:35:00.951Z,11.25
2019-05-09T04:36:00.930Z,11.25
2019-05-09T04:37:00.915Z,11.25
2019-05-09T04:38:00.903Z,11.25
2019-05-09T04:39:00.915Z,11.25
2019-05-09T04:40:03.348Z,16.88
2019-05-09T04:41:00.880Z,16.88
2019-05-09T04:42:05.236Z,16.88
2019-05-09T04:43:11.009Z,16.88
2019-05-09T04:44:05.024Z,16.88
2019-05-09T04:45:03.445Z,16.88
2019-05-09T04:46:00.814Z,16.88
2019-05-09T04:47:03.683Z,16.88
2019-05-09T04:48:00.791Z,16.88
2019-05-09T04:49:02.576Z,16.88
2019-05-09T04:50:00.769Z,22.50
2019-05-09T04:51:00.758Z,22.50
2019-05-09T04:52:00.749Z,22.50
2019-05-09T04:53:00.735Z,22.50
2019-05-09T04:54:00.751Z,22.50
2019-05-09T04:55:00.712Z,22.50
2019-05-09T04:56:00.700Z,22.50
2019-05-09T04:57:00.690Z,28.12
2019-05-09T04:58:00.678Z,28.12
2019-05-09T04:59:00.690Z,28.12
2019-05-09T05:00:00.660Z,33.75
2019-05-09T05:01:00.645Z,33.75
2019-05-09T05:02:00.632Z,33.75
2019-05-09T05:03:00.626Z,33.75
2019-05-09T05:04:00.633Z,33.75
2019-05-09T05:05:00.604Z,33.75
2019-05-09T05:06:00.590Z,33.75
2019-05-09T05:07:00.577Z,33.75
2019-05-09T05:08:01.063Z,33.75
2019-05-09T05:09:00.580Z,33.75
2019-05-09T05:10:00.548Z,33.75
2019-05-09T05:11:00.543Z,33.75
2019-05-09T05:12:00.520Z,33.75
2019-05-09T05:13:00.510Z,33.75
2019-05-09T05:14:00.523Z,33.75
2019-05-09T05:15:00.486Z,39.38
2019-05-09T05:16:00.485Z,39.38
2019-05-09T05:17:07.514Z,33.75
2019-05-09T05:18:01.456Z,33.75
2019-05-09T05:19:00.468Z,33.75
2019-05-09T05:20:00.502Z,33.75
2019-05-09T05:21:00.421Z,33.75
2019-05-09T05:22:00.419Z,33.75
2019-05-09T05:23:00.399Z,33.75
2019-05-09T05:24:00.411Z,33.75
2019-05-09T05:25:00.378Z,33.75
2019-05-09T05:26:00.364Z,33.75
2019-05-09T05:27:00.351Z,33.75
2019-05-09T05:28:00.342Z,33.75
2019-05-09T05:29:00.357Z,33.75
2019-05-09T05:30:00.323Z,33.75
2019-05-09T05:31:00.308Z,33.75
2019-05-09T05:32:00.296Z,39.38
2019-05-09T05:33:00.285Z,39.38
2019-05-09T05:34:00.300Z,39.38
2019-05-09T05:35:00.261Z,45.00
2019-05-09T05:36:00.259Z,45.00
2019-05-09T05:37:00.240Z,45.00
2019-05-09T05:38:00.228Z,45.00
2019-05-09T05:39:00.245Z,45.00
2019-05-09T05:40:00.210Z,45.00
2019-05-09T05:41:00.198Z,45.00
2019-05-09T05:42:00.191Z,45.00
2019-05-09T05:43:00.176Z,45.00
2019-05-09T05:44:00.188Z,45.00
2019-05-09T05:45:00.153Z,39.38
2019-05-09T05:46:00.140Z,39.38
2019-05-09T05:47:00.132Z,45.00
2019-05-09T05:48:00.119Z,45.00
2019-05-09T05:49:00.130Z,45.00
2019-05-09T05:50:00.099Z,45.00
2019-05-09T05:51:00.084Z,45.00
2019-05-09T05:52:00.076Z,45.00
2019-05-09T05:53:00.062Z,45.00
2019-05-09T05:54:01.428Z,45.00
2019-05-09T05:55:00.039Z,45.00
2019-05-09T05:56:00.029Z,50.62
2019-05-09T05:57:00.020Z,50.62
2019-05-09T05:58:00.012Z,50.62
2019-05-09T05:59:00.000Z,50.62
2019-05-09T06:00:00.010Z,50.62
2019-05-09T06:00:59.975Z,50.62
2019-05-09T06:01:59.966Z,45.00
2019-05-09T06:02:59.955Z,50.62
2019-05-09T06:03:59.939Z,50.62
2019-05-09T06:04:59.955Z,50.62
2019-05-09T06:05:59.920Z,50.62
2019-05-09T06:06:59.908Z,56.25
2019-05-09T06:07:59.896Z,56.25
2019-05-09T06:08:59.883Z,61.88
2019-05-09T06:09:59.897Z,61.88
2019-05-09T06:10:59.869Z,61.88
2019-05-09T06:11:59.855Z,61.88
2019-05-09T06:12:59.845Z,67.50
2019-05-09T06:14:06.559Z,73.12
2019-05-09T06:14:59.842Z,73.12
2019-05-09T06:15:59.811Z,67.50
2019-05-09T06:16:59.797Z,61.88
2019-05-09T06:17:59.782Z,67.50
2019-05-09T06:18:59.771Z,67.50
2019-05-09T06:19:59.783Z,67.50
2019-05-09T06:20:59.748Z,61.88
2019-05-09T06:21:59.740Z,61.88
2019-05-09T06:22:59.726Z,61.88
2019-05-09T06:23:59.719Z,61.88
2019-05-09T06:24:59.727Z,61.88
2019-05-09T06:25:59.700Z,56.25
2019-05-09T06:26:59.686Z,56.25
2019-05-09T06:27:59.671Z,56.25
2019-05-09T06:28:59.668Z,56.25
2019-05-09T06:29:59.673Z,56.25
2019-05-09T06:30:59.641Z,56.25
2019-05-09T06:31:59.626Z,56.25
2019-05-09T06:32:59.647Z,56.25
2019-05-09T06:33:59.609Z,56.25
2019-05-09T06:34:59.616Z,56.25
2019-05-09T06:35:59.584Z,61.88
2019-05-09T06:37:03.005Z,61.88
2019-05-09T06:37:59.559Z,67.50
2019-05-09T06:38:59.549Z,67.50
2019-05-09T06:39:59.580Z,73.12
2019-05-09T06:40:59.530Z,73.12
2019-05-09T06:41:59.514Z,78.75
2019-05-09T06:43:00.275Z,67.50
2019-05-09T06:44:13.625Z,67.50
2019-05-09T06:44:59.508Z,67.50
2019-05-09T06:45:59.474Z,61.88
2019-05-09T06:46:59.458Z,67.50
2019-05-09T06:48:00.504Z,67.50
2019-05-09T06:49:20.168Z,73.12
2019-05-09T06:50:00.451Z,67.50
2019-05-09T06:50:59.414Z,73.12
2019-05-09T06:51:59.404Z,78.75
2019-05-09T06:52:59.391Z,95.62
2019-05-09T06:53:59.384Z,101.25
2019-05-09T06:54:59.395Z,90.00
2019-05-09T06:55:59.363Z,84.38
2019-05-09T06:56:59.359Z,90.00
2019-05-09T06:57:59.339Z,90.00
2019-05-09T06:58:59.326Z,90.00
2019-05-09T06:59:59.337Z,90.00
2019-05-09T07:00:59.304Z,90.00
2019-05-09T07:01:59.293Z,90.00
2019-05-09T07:03:00.856Z,90.00
2019-05-09T07:03:59.271Z,101.25
2019-05-09T07:04:59.288Z,106.88
2019-05-09T07:05:59.250Z,118.12
2019-05-09T07:06:59.238Z,123.75
2019-05-09T07:07:59.228Z,123.75
2019-05-09T07:08:59.218Z,118.12
2019-05-09T07:09:59.235Z,112.50
2019-05-09T07:10:59.193Z,101.25
2019-05-09T07:11:59.182Z,106.88
2019-05-09T07:12:59.168Z,106.88
2019-05-09T07:13:59.165Z,106.88
2019-05-09T07:14:59.195Z,101.25
2019-05-09T07:15:59.137Z,101.25
2019-05-09T07:16:59.132Z,90.00
2019-05-09T07:17:59.118Z,84.38
2019-05-09T07:18:59.101Z,90.00
2019-05-09T07:19:59.210Z,95.62
2019-05-09T07:20:59.112Z,78.75
2019-05-09T07:21:59.073Z,84.38
2019-05-09T07:22:59.057Z,101.25
2019-05-09T07:23:59.054Z,118.12
2019-05-09T07:25:05.837Z,123.75
2019-05-09T07:26:00.051Z,118.12
2019-05-09T07:26:59.012Z,112.50
2019-05-09T07:27:59.001Z,106.88
2019-05-09T07:28:59.617Z,101.25
2019-05-09T07:29:58.982Z,90.00
2019-05-09T07:30:59.010Z,78.75
2019-05-09T07:31:58.959Z,67.50
2019-05-09T07:32:58.947Z,56.25
2019-05-09T07:33:58.940Z,56.25
2019-05-09T07:34:58.927Z,73.12
2019-05-09T07:35:58.934Z,84.38
2019-05-09T07:36:58.900Z,90.00
2019-05-09T07:37:58.892Z,101.25
2019-05-09T07:38:58.878Z,112.50
2019-05-09T07:39:58.873Z,123.75
2019-05-09T07:40:58.887Z,118.12
2019-05-09T07:41:58.851Z,101.25
2019-05-09T07:42:58.846Z,101.25
2019-05-09T07:43:58.826Z,106.88
2019-05-09T07:44:59.310Z,95.62
2019-05-09T07:45:58.824Z,101.25
2019-05-09T07:46:58.789Z,101.25
2019-05-09T07:47:58.778Z,101.25
2019-05-09T07:48:58.770Z,101.25
2019-05-09T07:49:58.757Z,112.50
2019-05-09T07:50:59.741Z,112.50
2019-05-09T07:52:05.763Z,106.88
2019-05-09T07:52:59.723Z,106.88
2019-05-09T07:53:59.122Z,123.75
2019-05-09T07:54:58.706Z,146.25
2019-05-09T07:55:58.712Z,135.00
2019-05-09T07:56:58.679Z,123.75
2019-05-09T07:57:59.231Z,112.50
2019-05-09T07:58:58.717Z,112.50
2019-05-09T07:59:58.649Z,106.88
2019-05-09T08:01:01.460Z,106.88
2019-05-09T08:01:58.625Z,106.88
2019-05-09T08:02:58.614Z,101.25
2019-05-09T08:03:59.170Z,95.62
2019-05-09T08:04:58.593Z,101.25
2019-05-09T08:05:58.600Z,101.25
2019-05-09T08:06:58.567Z,95.62
2019-05-09T08:07:58.788Z,90.00
2019-05-09T08:08:58.579Z,84.38
2019-05-09T08:09:58.536Z,84.38
2019-05-09T08:10:58.677Z,84.38
2019-05-09T08:11:58.878Z,90.00
2019-05-09T08:12:58.819Z,90.00
2019-05-09T08:13:58.492Z,90.00
2019-05-09T08:15:10.238Z,84.38
2019-05-09T08:15:58.716Z,84.38
2019-05-09T08:16:58.453Z,78.75
2019-05-09T08:17:59.329Z,78.75
2019-05-09T08:18:58.432Z,78.75
2019-05-09T08:19:58.523Z,78.75
2019-05-09T08:20:58.436Z,78.75
2019-05-09T08:21:58.398Z,84.38
2019-05-09T08:23:01.962Z,84.38
2019-05-09T08:23:58.375Z,90.00
2019-05-09T08:24:58.365Z,95.62
2019-05-09T08:25:58.376Z,101.25
2019-05-09T08:26:58.343Z,106.88
2019-05-09T08:27:58.974Z,106.88
2019-05-09T08:28:58.691Z,123.75
2019-05-09T08:29:58.485Z,140.62
2019-05-09T08:30:58.704Z,151.88
2019-05-09T08:31:58.512Z,157.50
2019-05-09T08:32:59.843Z,151.88
2019-05-09T08:33:59.244Z,146.25
2019-05-09T08:34:58.253Z,146.25
2019-05-09T08:35:58.658Z,157.50
2019-05-09T08:36:58.363Z,163.12
2019-05-09T08:37:58.610Z,168.75
2019-05-09T08:38:58.874Z,168.75
2019-05-09T08:39:58.205Z,168.75
2019-05-09T08:40:58.870Z,168.75
2019-05-09T08:41:59.188Z,168.75
2019-05-09T08:42:59.019Z,168.75
2019-05-09T08:43:58.154Z,191.25
2019-05-09T08:44:58.141Z,185.62
2019-05-09T08:45:58.130Z,191.25
2019-05-09T08:46:58.147Z,180.00
2019-05-09T08:47:58.110Z,174.38
2019-05-09T08:48:58.099Z,185.62
2019-05-09T08:49:58.813Z,191.25
2019-05-09T08:50:58.348Z,185.62
2019-05-09T08:52:10.128Z,163.12
2019-05-09T08:52:59.054Z,151.88
2019-05-09T08:53:58.040Z,174.38
2019-05-09T08:54:58.036Z,185.62
2019-05-09T08:55:58.145Z,163.12
2019-05-09T08:56:58.238Z,140.62
2019-05-09T08:57:58.768Z,129.38
2019-05-09T08:59:02.025Z,118.12
2019-05-09T08:59:58.922Z,106.88
2019-05-09T09:01:03.763Z,95.62
2019-05-09T09:02:12.210Z,95.62
2019-05-09T09:02:57.942Z,101.25
2019-05-09T09:03:57.936Z,112.50
2019-05-09T09:04:58.481Z,118.12
2019-05-09T09:05:57.985Z,118.12
2019-05-09T09:06:57.916Z,140.62
2019-05-09T09:07:58.095Z,174.38
2019-05-09T09:08:57.880Z,196.88
2019-05-09T09:09:57.958Z,196.88
2019-05-09T09:10:57.902Z,174.38
2019-05-09T09:11:58.470Z,157.50
2019-05-09T09:12:58.269Z,135.00
2019-05-09T09:13:57.913Z,112.50
2019-05-09T09:14:58.630Z,101.25
2019-05-09T09:16:11.698Z,84.38
2019-05-09T09:16:58.810Z,73.12
2019-05-09T09:17:58.087Z,73.12
2019-05-09T09:18:58.554Z,78.75
2019-05-09T09:19:58.459Z,84.38
2019-05-09T09:20:58.862Z,73.12
2019-05-09T09:22:00.533Z,56.25
2019-05-09T09:22:58.440Z,50.62
2019-05-09T09:23:58.370Z,56.25
2019-05-09T09:24:58.647Z,56.25
2019-05-09T09:25:58.413Z,56.25
2019-05-09T09:26:57.698Z,50.62
2019-05-09T09:27:58.309Z,61.88
2019-05-09T09:28:57.923Z,50.62
2019-05-09T09:29:58.805Z,56.25
2019-05-09T09:30:59.127Z,56.25
2019-05-09T09:31:57.800Z,56.25
2019-05-09T09:32:58.677Z,61.88
2019-05-09T09:33:58.476Z,67.50
2019-05-09T09:34:58.750Z,78.75
2019-05-09T09:35:58.048Z,84.38
2019-05-09T09:37:03.330Z,90.00
2019-05-09T09:37:58.550Z,101.25
2019-05-09T09:38:58.636Z,106.88
2019-05-09T09:39:58.346Z,106.88
2019-05-09T09:40:58.111Z,101.25
2019-05-09T09:41:58.681Z,95.62
2019-05-09T09:42:58.283Z,95.62
2019-05-09T09:43:58.225Z,84.38
2019-05-09T09:44:58.530Z,78.75
2019-05-09T09:46:07.184Z,84.38
2019-05-09T09:46:58.110Z,84.38
2019-05-09T09:47:59.111Z,84.38
2019-05-09T09:48:58.654Z,84.38
2019-05-09T09:49:59.498Z,95.62
2019-05-09T09:50:57.948Z,101.25
2019-05-09T09:51:58.146Z,106.88
2019-05-09T09:52:58.869Z,118.12
2019-05-09T09:53:58.314Z,135.00
2019-05-09T09:54:58.255Z,151.88
2019-05-09T09:55:58.326Z,163.12
2019-05-09T09:56:58.531Z,163.12
2019-05-09T09:57:57.975Z,163.12
2019-05-09T09:58:57.721Z,157.50
2019-05-09T09:59:58.432Z,146.25
2019-05-09T10:00:58.389Z,151.88
2019-05-09T10:01:58.370Z,151.88
2019-05-09T10:02:58.712Z,163.12
2019-05-09T10:03:58.086Z,157.50
2019-05-09T10:04:57.249Z,140.62
2019-05-09T10:05:57.829Z,123.75
2019-05-09T10:06:58.283Z,118.12
2019-05-09T10:07:58.234Z,123.75
2019-05-09T10:08:58.062Z,123.75
2019-05-09T10:09:58.420Z,123.75
2019-05-09T10:10:58.950Z,123.75
2019-05-09T10:12:00.596Z,123.75
2019-05-09T10:13:03.704Z,118.12
2019-05-09T10:13:58.434Z,118.12
2019-05-09T10:14:57.724Z,140.62
2019-05-09T10:15:58.726Z,168.75
2019-05-09T10:16:58.118Z,174.38
2019-05-09T10:17:58.281Z,151.88
2019-05-09T10:18:57.871Z,146.25
2019-05-09T10:19:57.082Z,146.25
2019-05-09T10:20:58.584Z,135.00
2019-05-09T10:21:57.820Z,118.12
2019-05-09T10:23:03.073Z,129.38
2019-05-09T10:23:58.038Z,135.00
2019-05-09T10:24:58.572Z,129.38
2019-05-09T10:25:58.141Z,118.12
2019-05-09T10:26:57.010Z,123.75
2019-05-09T10:27:57.015Z,123.75
2019-05-09T10:28:56.978Z,140.62
2019-05-09T10:29:57.532Z,146.25
2019-05-09T10:30:57.777Z,118.12
2019-05-09T10:31:57.908Z,112.50
2019-05-09T10:32:58.336Z,123.75
2019-05-09T10:33:58.034Z,135.00
2019-05-09T10:34:58.109Z,135.00
2019-05-09T10:36:03.169Z,146.25
2019-05-09T10:36:58.259Z,151.88
2019-05-09T10:37:58.944Z,151.88
2019-05-09T10:38:58.504Z,151.88
2019-05-09T10:39:58.073Z,157.50
2019-05-09T10:41:01.073Z,174.38
2019-05-09T10:41:57.837Z,191.25
2019-05-09T10:42:58.669Z,185.62
2019-05-09T10:43:57.904Z,185.62
2019-05-09T10:44:58.255Z,191.25
2019-05-09T10:45:57.815Z,191.25
2019-05-09T10:47:00.676Z,196.88
2019-05-09T10:47:57.670Z,208.12
2019-05-09T10:48:58.656Z,208.12
2019-05-09T10:49:58.198Z,196.88
2019-05-09T10:51:04.235Z,180.00
2019-05-09T10:51:58.166Z,146.25
2019-05-09T10:52:58.427Z,123.75
2019-05-09T10:53:58.755Z,123.75
2019-05-09T10:54:58.028Z,129.38
2019-05-09T10:55:56.680Z,123.75
2019-05-09T10:56:57.939Z,118.12
2019-05-09T10:58:01.982Z,106.88
2019-05-09T10:58:58.525Z,95.62
2019-05-09T10:59:58.011Z,95.62
2019-05-09T11:00:58.636Z,90.00
2019-05-09T11:01:57.936Z,95.62
2019-05-09T11:02:58.336Z,95.62
2019-05-09T11:03:58.945Z,90.00
2019-05-09T11:04:57.577Z,90.00
2019-05-09T11:05:57.998Z,78.75
2019-05-09T11:06:58.309Z,73.12
2019-05-09T11:07:58.826Z,73.12
2019-05-09T11:08:58.358Z,73.12
2019-05-09T11:09:58.859Z,67.50
2019-05-09T11:10:58.022Z,61.88
2019-05-09T11:12:00.873Z,67.50
2019-05-09T11:12:58.457Z,61.88
2019-05-09T11:13:58.724Z,61.88
2019-05-09T11:14:59.091Z,61.88
2019-05-09T11:15:58.275Z,61.88
2019-05-09T11:17:07.771Z,67.50
2019-05-09T11:17:57.773Z,73.12
2019-05-09T11:18:58.548Z,78.75
2019-05-09T11:19:58.714Z,84.38
2019-05-09T11:20:58.122Z,84.38
2019-05-09T11:21:58.660Z,78.75
2019-05-09T11:22:58.195Z,78.75
2019-05-09T11:23:58.415Z,84.38
2019-05-09T11:24:57.955Z,95.62
2019-05-09T11:25:58.071Z,95.62
2019-05-09T11:26:58.704Z,90.00
2019-05-09T11:28:09.946Z,90.00
2019-05-09T11:28:58.496Z,90.00
2019-05-09T11:29:57.807Z,95.62
2019-05-09T11:30:58.236Z,95.62
2019-05-09T11:31:58.545Z,95.62
2019-05-09T11:32:56.263Z,95.62
2019-05-09T11:33:57.922Z,95.62
2019-05-09T11:34:57.584Z,112.50
2019-05-09T11:35:58.085Z,123.75
2019-05-09T11:36:57.953Z,129.38
2019-05-09T11:37:58.578Z,129.38
2019-05-09T11:38:59.816Z,135.00
2019-05-09T11:39:58.066Z,140.62
2019-05-09T11:40:58.048Z,146.25
2019-05-09T11:41:58.587Z,157.50
2019-05-09T11:42:56.154Z,168.75
2019-05-09T11:43:59.193Z,191.25
2019-05-09T11:44:58.027Z,196.88
2019-05-09T11:45:58.053Z,202.50
2019-05-09T11:46:58.274Z,208.12
2019-05-09T11:47:58.208Z,225.00
2019-05-09T11:48:57.826Z,230.62
2019-05-09T11:49:57.815Z,236.25
2019-05-09T11:50:58.113Z,230.62
2019-05-09T11:51:57.638Z,208.12
2019-05-09T11:52:56.056Z,185.62
2019-05-09T11:53:58.162Z,174.38
2019-05-09T11:54:58.057Z,163.12
2019-05-09T11:55:57.777Z,163.12
2019-05-09T11:56:57.631Z,157.50
2019-05-09T11:57:58.774Z,157.50
2019-05-09T11:58:57.894Z,157.50
2019-05-09T11:59:57.883Z,151.88
2019-05-09T12:00:55.952Z,151.88
2019-05-09T12:01:58.395Z,146.25
2019-05-09T12:02:58.191Z,140.62
2019-05-09T12:03:57.808Z,135.00
2019-05-09T12:04:55.907Z,118.12
2019-05-09T12:05:58.180Z,112.50
2019-05-09T12:06:57.695Z,112.50
2019-05-09T12:07:58.223Z,112.50
2019-05-09T12:08:58.579Z,106.88
2019-05-09T12:09:55.850Z,112.50
2019-05-09T12:10:57.739Z,112.50
2019-05-09T12:11:55.828Z,112.50
2019-05-09T12:12:57.600Z,118.12
2019-05-09T12:13:58.215Z,123.75
2019-05-09T12:14:57.997Z,123.75
2019-05-09T12:15:58.290Z,118.12
2019-05-09T12:16:55.791Z,106.88
2019-05-09T12:18:01.610Z,106.88
2019-05-09T12:18:58.117Z,101.25
2019-05-09T12:20:09.128Z,101.25
2019-05-09T12:20:57.665Z,106.88
2019-05-09T12:21:58.103Z,106.88
2019-05-09T12:22:58.190Z,106.88
2019-05-09T12:23:57.908Z,101.25
2019-05-09T12:24:55.685Z,90.00
2019-05-09T12:25:58.056Z,84.38
2019-05-09T12:26:57.553Z,78.75
2019-05-09T12:27:58.177Z,73.12
2019-05-09T12:28:57.761Z,73.12
2019-05-09T12:29:57.644Z,67.50
2019-05-09T12:30:55.617Z,67.50
2019-05-09T12:31:55.605Z,67.50
2019-05-09T12:32:55.595Z,67.50
2019-05-09T12:33:55.611Z,67.50
2019-05-09T12:34:57.719Z,73.12
2019-05-09T12:35:55.561Z,73.12
2019-05-09T12:36:58.376Z,73.12
2019-05-09T12:37:55.542Z,73.12
2019-05-09T12:38:55.563Z,78.75
2019-05-09T12:39:55.515Z,78.75
2019-05-09T12:41:00.224Z,78.75
2019-05-09T12:41:57.787Z,84.38
2019-05-09T12:42:55.495Z,90.00
2019-05-09T12:43:57.453Z,95.62
2019-05-09T12:44:55.460Z,95.62
2019-05-09T12:45:57.657Z,101.25
2019-05-09T12:46:57.990Z,101.25
2019-05-09T12:48:07.653Z,106.88
2019-05-09T12:48:55.417Z,118.12
2019-05-09T12:49:58.394Z,123.75
2019-05-09T12:50:55.397Z,135.00
2019-05-09T12:51:57.602Z,140.62
2019-05-09T12:52:57.469Z,146.25